Time;durP1;ratioP1;P1;durP2;ratioP2;P2;SDS_P1;SDS_P2;PMS_P1;PMS_P2;Temp;Humidity;BMP_temperature;BMP_pressure;BME280_temperature;BME280_humidity;BME280_pressure;Samples;Min_cycle;Max_cycle;Signal;HPM_P1;HPM_P2
2024/02/24 00:00:49;;;;;;;11.60;3.10;;;6.80;99.90;;;;;;4985250;28;20428;-46
2024/02/24 00:03:15;;;;;;;7.70;2.88;;;6.80;99.90;;;;;;4990025;28;20026;-50
2024/02/24 00:05:40;;;;;;;6.38;2.90;;;6.80;99.90;;;;;;4990044;28;20062;-44
2024/02/24 00:08:07;;;;;;;7.07;2.88;;;6.80;99.90;;;;;;4987761;28;20030;-52
2024/02/24 00:10:32;;;;;;;8.93;2.85;;;6.80;99.90;;;;;;4989395;28;20027;-46
2024/02/24 00:12:58;;;;;;;5.63;3.15;;;6.70;99.90;;;;;;4989584;28;20038;-44
2024/02/24 00:15:23;;;;;;;5.65;2.50;;;6.70;99.90;;;;;;4989783;28;20170;-47
2024/02/24 00:17:49;;;;;;;4.10;2.90;;;6.60;99.90;;;;;;4989505;28;20496;-48
2024/02/24 00:20:14;;;;;;;14.32;3.28;;;6.60;99.90;;;;;;4989706;28;20037;-48
2024/02/24 00:22:40;;;;;;;9.23;3.17;;;6.50;99.90;;;;;;4989286;28;20038;-46
2024/02/24 00:25:06;;;;;;;12.32;3.05;;;6.40;99.90;;;;;;4989118;28;20160;-53
2024/02/24 00:27:31;;;;;;;10.77;2.90;;;6.40;99.90;;;;;;4989400;28;20145;-49
2024/02/24 00:29:57;;;;;;;6.97;3.83;;;6.40;99.90;;;;;;4989503;28;20046;-49
2024/02/24 00:32:22;;;;;;;8.02;2.80;;;6.40;99.90;;;;;;4989447;28;20057;-45
2024/02/24 00:34:48;;;;;;;6.93;3.30;;;6.40;99.90;;;;;;4989467;28;20553;-46
2024/02/24 00:37:13;;;;;;;6.18;3.22;;;6.40;99.90;;;;;;4989354;28;20030;-47
2024/02/24 00:39:39;;;;;;;7.55;3.47;;;6.40;99.90;;;;;;5004265;28;20030;-48
2024/02/24 00:42:04;;;;;;;9.75;3.30;;;6.40;99.90;;;;;;4989084;28;20034;-51
2024/02/24 00:44:30;;;;;;;5.85;2.90;;;6.40;99.90;;;;;;4988940;28;20432;-46
2024/02/24 00:46:56;;;;;;;11.90;3.80;;;6.30;99.90;;;;;;4989462;28;20031;-48
2024/02/24 00:49:22;;;;;;;12.93;3.42;;;6.30;99.90;;;;;;4989081;28;20484;-45
2024/02/24 00:51:48;;;;;;;6.22;3.28;;;6.20;99.90;;;;;;5004269;28;20037;-47
2024/02/24 00:54:14;;;;;;;8.02;2.83;;;6.20;99.90;;;;;;5004036;28;20058;-47
2024/02/24 00:56:39;;;;;;;4.78;2.72;;;6.20;99.90;;;;;;4987782;28;20031;-45
2024/02/24 00:59:05;;;;;;;176.63;94.53;;;6.30;99.90;;;;;;4989967;28;20022;-51
2024/02/24 01:01:30;;;;;;;31.75;16.10;;;6.30;99.90;;;;;;4990270;28;20104;-50
2024/02/24 01:03:56;;;;;;;10.38;5.55;;;6.40;99.90;;;;;;4990289;28;20031;-45
2024/02/24 01:06:22;;;;;;;7.05;3.28;;;6.40;99.90;;;;;;4990331;28;20027;-45
2024/02/24 01:08:47;;;;;;;10.13;3.17;;;6.40;99.90;;;;;;4989629;28;20030;-51
2024/02/24 01:11:13;;;;;;;10.93;3.33;;;6.40;99.90;;;;;;4990316;28;20030;-44
2024/02/24 01:13:38;;;;;;;6.82;2.92;;;6.40;99.90;;;;;;4988823;28;20077;-47
2024/02/24 01:16:04;;;;;;;6.50;3.30;;;6.40;99.90;;;;;;4991327;28;20029;-45
2024/02/24 01:18:30;;;;;;;6.57;3.67;;;6.40;99.90;;;;;;4991929;28;20101;-47
2024/02/24 01:20:55;;;;;;;5.00;2.70;;;6.40;99.90;;;;;;4991918;28;20105;-44
2024/02/24 01:23:24;;;;;;;4.97;2.50;;;6.50;99.90;;;;;;5038307;23;20065;-58
2024/02/24 01:25:50;;;;;;;6.38;2.88;;;6.60;99.90;;;;;;5037098;28;20018;-59
2024/02/24 01:28:16;;;;;;;8.50;3.03;;;6.60;99.90;;;;;;5038696;28;20028;-57
2024/02/24 01:30:41;;;;;;;8.57;3.25;;;6.80;99.90;;;;;;5038396;28;20300;-58
2024/02/24 01:33:07;;;;;;;3.97;2.75;;;6.90;99.90;;;;;;5038568;28;20082;-57
2024/02/24 01:35:33;;;;;;;5.32;3.17;;;6.90;99.90;;;;;;5037942;28;20022;-58
2024/02/24 01:37:59;;;;;;;15.57;3.83;;;6.90;99.90;;;;;;5039951;28;20030;-59
2024/02/24 01:40:24;;;;;;;5.72;2.90;;;6.80;99.90;;;;;;5039443;28;20022;-58
2024/02/24 01:42:50;;;;;;;6.85;3.13;;;6.70;99.90;;;;;;5039022;28;20518;-57
2024/02/24 01:45:15;;;;;;;5.32;2.83;;;6.60;99.90;;;;;;5038629;28;20021;-59
2024/02/24 01:47:41;;;;;;;4.60;2.60;;;6.60;99.90;;;;;;5037483;28;20525;-57
2024/02/24 01:50:09;;;;;;;10.18;4.00;;;6.50;99.90;;;;;;5038209;28;20026;-59
2024/02/24 01:52:36;;;;;;;3.45;2.65;;;6.40;99.90;;;;;;5037955;28;20029;-57
2024/02/24 01:55:03;;;;;;;11.68;3.25;;;6.40;99.90;;;;;;5038672;28;20030;-58
2024/02/24 01:57:35;;;;;;;11.73;2.97;;;6.40;99.90;;;;;;5021162;28;20035;-60
2024/02/24 02:00:02;;;;;;;9.65;3.00;;;6.40;99.90;;;;;;5038830;28;20029;-58
2024/02/24 02:02:27;;;;;;;8.27;2.92;;;6.50;99.90;;;;;;5038831;28;20026;-60
2024/02/24 02:04:53;;;;;;;6.28;2.67;;;6.60;99.90;;;;;;5020892;28;20028;-60
2024/02/24 02:07:18;;;;;;;10.13;3.28;;;6.60;99.90;;;;;;5020941;28;20485;-61
2024/02/24 02:09:58;;;;;;;7.75;3.10;;;6.70;99.90;;;;;;5023589;28;20022;-60
2024/02/24 02:12:24;;;;;;;4.63;2.75;;;6.50;99.90;;;;;;5024709;28;20021;-60
2024/02/24 02:14:50;;;;;;;8.43;3.22;;;6.40;99.90;;;;;;5043169;28;20063;-58
2024/02/24 02:17:17;;;;;;;6.68;3.17;;;6.40;99.90;;;;;;5041272;28;20029;-58
2024/02/24 02:19:42;;;;;;;8.45;2.80;;;6.30;99.90;;;;;;5041837;28;20022;-59
2024/02/24 02:22:11;;;;;;;9.18;3.10;;;6.20;99.90;;;;;;5042630;28;20037;-57
2024/02/24 02:24:37;;;;;;;6.47;3.22;;;6.20;99.90;;;;;;5024353;28;20502;-58
2024/02/24 02:27:06;;;;;;;5.57;2.60;;;6.10;99.90;;;;;;5042546;28;20029;-58
2024/02/24 02:29:35;;;;;;;12.10;3.28;;;6.00;99.90;;;;;;5042208;28;20040;-58
2024/02/24 02:32:00;;;;;;;4.88;2.30;;;6.00;99.90;;;;;;5042845;28;20018;-59
2024/02/24 02:34:26;;;;;;;4.45;2.30;;;6.00;99.90;;;;;;5042294;28;20104;-60
2024/02/24 02:36:52;;;;;;;5.03;2.17;;;6.10;99.90;;;;;;5042380;28;20430;-59
2024/02/24 02:39:17;;;;;;;7.43;2.40;;;6.10;99.90;;;;;;5024997;28;20029;-59
2024/02/24 02:41:43;;;;;;;3.67;2.33;;;6.10;99.90;;;;;;5042793;28;20029;-60
2024/02/24 02:44:09;;;;;;;11.70;3.60;;;6.10;99.90;;;;;;5042566;28;20033;-60
2024/02/24 02:46:34;;;;;;;8.10;2.72;;;6.10;99.90;;;;;;5023040;28;20029;-58
2024/02/24 02:49:00;;;;;;;4.80;2.85;;;6.10;99.90;;;;;;5024266;28;20018;-58
2024/02/24 02:51:25;;;;;;;6.85;3.53;;;6.10;99.90;;;;;;5041201;28;20064;-58
2024/02/24 02:53:50;;;;;;;8.13;3.42;;;6.10;99.90;;;;;;5041139;28;20060;-60
2024/02/24 02:56:20;;;;;;;7.82;3.30;;;6.30;99.90;;;;;;5042090;28;20068;-57
2024/02/24 02:58:46;;;;;;;23.02;4.25;;;6.40;99.90;;;;;;5042248;28;20057;-58
2024/02/24 03:01:12;;;;;;;4.82;2.80;;;6.40;99.90;;;;;;5024153;28;20490;-58
2024/02/24 03:03:37;;;;;;;6.43;2.97;;;6.50;99.90;;;;;;5042319;28;20033;-60
2024/02/24 03:06:04;;;;;;;10.90;4.28;;;6.40;99.90;;;;;;5041714;28;20036;-60
2024/02/24 03:08:32;;;;;;;8.82;3.10;;;6.40;99.90;;;;;;5042093;28;20028;-56
2024/02/24 03:10:58;;;;;;;5.85;2.75;;;6.40;99.90;;;;;;5042245;28;20017;-57
2024/02/24 03:13:24;;;;;;;11.45;3.58;;;6.40;99.90;;;;;;5023992;28;20051;-59
2024/02/24 03:15:49;;;;;;;5.55;3.05;;;6.40;99.90;;;;;;5041349;28;20033;-58
2024/02/24 03:18:15;;;;;;;7.30;3.25;;;6.40;99.90;;;;;;5041564;28;20081;-59
2024/02/24 03:20:40;;;;;;;6.18;2.60;;;6.40;99.90;;;;;;5041416;28;20112;-60
2024/02/24 03:23:06;;;;;;;7.20;3.30;;;6.30;99.90;;;;;;5023707;28;20025;-58
2024/02/24 03:25:32;;;;;;;13.35;3.05;;;6.30;99.90;;;;;;5041438;28;20041;-59
2024/02/24 03:27:57;;;;;;;6.53;2.72;;;6.30;99.90;;;;;;5022841;28;20025;-59
2024/02/24 03:30:23;;;;;;;3.53;2.33;;;6.10;99.90;;;;;;5041713;28;20025;-58
2024/02/24 03:32:48;;;;;;;4.97;2.78;;;6.00;99.90;;;;;;5040848;28;20100;-59
2024/02/24 03:35:14;;;;;;;7.55;3.10;;;6.00;99.90;;;;;;5023080;28;20017;-58
2024/02/24 03:37:39;;;;;;;8.88;3.20;;;6.00;99.90;;;;;;5022615;28;20022;-59
2024/02/24 03:40:06;;;;;;;5.90;3.28;;;6.00;99.90;;;;;;5040655;28;20026;-59
2024/02/24 03:42:31;;;;;;;6.93;3.63;;;6.00;99.90;;;;;;5022257;28;20026;-58
2024/02/24 03:44:57;;;;;;;3.33;2.63;;;6.00;99.90;;;;;;5039954;28;20030;-59
2024/02/24 03:47:23;;;;;;;6.97;3.00;;;6.00;99.90;;;;;;5021990;28;20029;-58
2024/02/24 03:49:48;;;;;;;5.35;2.90;;;5.90;99.90;;;;;;5040170;28;20036;-58
2024/02/24 03:52:14;;;;;;;6.72;3.22;;;5.80;99.90;;;;;;5040274;28;20034;-58
2024/02/24 03:54:39;;;;;;;6.60;3.00;;;5.80;99.90;;;;;;5039228;28;20014;-58
2024/02/24 03:57:05;;;;;;;10.85;2.80;;;5.80;99.90;;;;;;5023168;28;20033;-55
2024/02/24 03:59:30;;;;;;;5.50;2.58;;;5.70;99.90;;;;;;5024122;28;20030;-60
2024/02/24 04:01:55;;;;;;;3.25;2.20;;;5.70;99.90;;;;;;5040078;28;20033;-57
2024/02/24 04:04:21;;;;;;;2.72;2.30;;;5.60;99.90;;;;;;5040800;28;20109;-58
2024/02/24 04:06:46;;;;;;;13.02;2.90;;;5.60;99.90;;;;;;5021741;28;20107;-59
2024/02/24 04:09:13;;;;;;;3.88;2.40;;;5.60;99.90;;;;;;5039813;28;20033;-56
2024/02/24 04:11:38;;;;;;;4.03;2.13;;;5.60;99.90;;;;;;5022061;28;20056;-59
2024/02/24 04:14:04;;;;;;;2.60;2.40;;;5.60;99.90;;;;;;5021254;28;20029;-60
2024/02/24 04:16:30;;;;;;;4.95;2.42;;;5.60;99.90;;;;;;5039783;28;20041;-58
2024/02/24 04:18:55;;;;;;;2.75;1.98;;;5.60;99.90;;;;;;5022177;28;20036;-59
2024/02/24 04:21:22;;;;;;;3.17;2.42;;;5.60;99.90;;;;;;5020929;28;20410;-55
2024/02/24 04:23:48;;;;;;;4.30;2.22;;;5.70;99.90;;;;;;5039184;28;20029;-60
2024/02/24 04:26:13;;;;;;;3.90;2.20;;;5.60;99.90;;;;;;5038869;28;20032;-59
2024/02/24 04:28:40;;;;;;;2.90;2.38;;;5.60;99.90;;;;;;5039308;28;20107;-58
2024/02/24 04:31:05;;;;;;;5.93;2.10;;;5.50;99.90;;;;;;5039099;28;20040;-59
2024/02/24 04:33:31;;;;;;;4.32;2.50;;;5.50;99.90;;;;;;5021136;28;20026;-58
2024/02/24 04:35:56;;;;;;;2.97;2.13;;;5.40;99.90;;;;;;5022027;28;20028;-57
2024/02/24 04:38:22;;;;;;;11.10;3.50;;;5.40;99.90;;;;;;5022254;28;20021;-59
2024/02/24 04:40:47;;;;;;;2.78;2.03;;;5.40;99.90;;;;;;5039944;28;20033;-60
2024/02/24 04:43:13;;;;;;;6.82;2.58;;;5.40;99.90;;;;;;5039034;28;20103;-57
2024/02/24 04:45:38;;;;;;;7.03;2.00;;;5.40;99.90;;;;;;5039053;28;20026;-59
2024/02/24 04:48:04;;;;;;;4.63;2.10;;;5.40;99.90;;;;;;5038707;28;20034;-60
2024/02/24 04:50:30;;;;;;;4.15;2.28;;;5.40;99.90;;;;;;5020726;28;20060;-61
2024/02/24 04:52:55;;;;;;;3.22;2.22;;;5.50;99.90;;;;;;5038715;28;20045;-59
2024/02/24 04:55:21;;;;;;;4.13;2.10;;;5.50;99.90;;;;;;5038244;28;20029;-59
2024/02/24 04:57:46;;;;;;;5.90;2.10;;;5.50;99.90;;;;;;5037919;28;20029;-59
2024/02/24 05:00:12;;;;;;;3.00;1.90;;;5.50;99.90;;;;;;5038940;28;20036;-60
2024/02/24 05:02:37;;;;;;;4.55;2.33;;;5.50;99.90;;;;;;5025448;28;20026;-59
2024/02/24 05:05:04;;;;;;;3.38;2.00;;;5.40;99.90;;;;;;5041851;28;20090;-57
2024/02/24 05:07:29;;;;;;;7.10;1.70;;;5.40;99.90;;;;;;5023865;28;20030;-59
2024/02/24 05:09:56;;;;;;;5.78;1.65;;;5.40;99.90;;;;;;5022413;28;20072;-58
2024/02/24 05:12:21;;;;;;;5.40;2.08;;;5.30;99.90;;;;;;5018256;28;20112;-56
2024/02/24 05:14:48;;;;;;;3.55;1.95;;;5.30;99.90;;;;;;5035461;28;20541;-60
2024/02/24 05:17:14;;;;;;;2.83;1.95;;;5.30;99.90;;;;;;5016713;28;20026;-60
2024/02/24 05:19:40;;;;;;;1.58;1.48;;;5.30;99.90;;;;;;5020356;28;20025;-57
2024/02/24 05:22:06;;;;;;;1.60;1.50;;;5.10;99.90;;;;;;5040019;28;20040;-60
2024/02/24 05:24:32;;;;;;;5.07;1.70;;;5.10;99.90;;;;;;5040415;28;20036;-57
2024/02/24 05:26:57;;;;;;;6.13;1.90;;;5.00;99.90;;;;;;5023490;28;20031;-59
2024/02/24 05:29:23;;;;;;;7.30;1.88;;;5.00;99.90;;;;;;5041037;28;20022;-59
2024/02/24 05:31:48;;;;;;;2.30;1.80;;;5.00;99.90;;;;;;5022854;28;20025;-58
2024/02/24 05:34:14;;;;;;;9.10;2.55;;;5.00;99.90;;;;;;5040653;28;20042;-60
2024/02/24 05:36:40;;;;;;;3.60;1.88;;;5.00;99.90;;;;;;5022830;28;20037;-59
2024/02/24 05:39:06;;;;;;;4.05;1.70;;;5.00;99.90;;;;;;5040572;28;20021;-61
2024/02/24 05:41:32;;;;;;;1.65;1.55;;;5.00;99.90;;;;;;5041172;28;20489;-57
2024/02/24 05:43:58;;;;;;;7.47;2.75;;;5.00;99.90;;;;;;5024340;28;20033;-58
2024/02/24 05:46:23;;;;;;;2.67;2.22;;;5.00;99.90;;;;;;5044671;28;20076;-59
2024/02/24 05:48:49;;;;;;;4.20;1.92;;;5.10;99.90;;;;;;5045199;28;20546;-58
2024/02/24 05:51:16;;;;;;;6.15;2.00;;;5.10;99.90;;;;;;5026944;28;20029;-59
2024/02/24 05:53:42;;;;;;;3.35;1.65;;;5.10;99.90;;;;;;5043485;28;20021;-60
2024/02/24 05:56:08;;;;;;;4.00;2.90;;;5.20;99.90;;;;;;5041628;28;20032;-61
2024/02/24 05:58:33;;;;;;;3.90;1.70;;;5.30;99.90;;;;;;5041713;28;20039;-61
2024/02/24 06:01:02;;;;;;;3.65;1.58;;;5.20;99.90;;;;;;5023891;28;20371;-58
2024/02/24 06:03:28;;;;;;;2.50;1.80;;;5.30;99.90;;;;;;5023777;28;20074;-59
2024/02/24 06:05:53;;;;;;;7.72;2.22;;;5.20;99.90;;;;;;5041059;28;20086;-58
2024/02/24 06:08:19;;;;;;;2.60;1.67;;;5.20;99.90;;;;;;5022404;28;20029;-60
2024/02/24 06:10:45;;;;;;;1.30;1.20;;;5.20;99.90;;;;;;5021481;28;20079;-60
2024/02/24 06:13:10;;;;;;;1.52;1.42;;;5.20;99.90;;;;;;5038399;28;20048;-58
2024/02/24 06:15:36;;;;;;;1.80;1.50;;;5.20;99.90;;;;;;5020935;28;20018;-60
2024/02/24 06:18:01;;;;;;;3.78;2.13;;;5.20;99.90;;;;;;5039756;28;20025;-60
2024/02/24 06:20:27;;;;;;;1.55;1.42;;;5.20;99.90;;;;;;5040506;28;20052;-60
2024/02/24 06:22:52;;;;;;;4.45;1.80;;;5.30;99.90;;;;;;5023327;28;20033;-59
2024/02/24 06:25:18;;;;;;;5.00;1.70;;;5.30;99.90;;;;;;5040754;28;20037;-58
2024/02/24 06:27:44;;;;;;;2.72;1.83;;;5.20;99.90;;;;;;5040484;28;20390;-59
2024/02/24 06:30:10;;;;;;;2.13;1.50;;;5.20;99.90;;;;;;5021962;28;20026;-57
2024/02/24 06:32:35;;;;;;;2.40;1.40;;;5.30;99.90;;;;;;5021400;28;20060;-58
2024/02/24 06:35:01;;;;;;;1.50;1.40;;;5.30;99.90;;;;;;5038818;28;20549;-58
2024/02/24 06:37:27;;;;;;;2.10;1.55;;;5.30;99.90;;;;;;5021441;28;20026;-58
2024/02/24 06:39:52;;;;;;;2.40;1.27;;;5.60;99.90;;;;;;5039944;28;20033;-57
2024/02/24 06:42:18;;;;;;;1.73;1.63;;;5.40;99.90;;;;;;5023791;28;20083;-58
2024/02/24 06:44:43;;;;;;;3.55;1.85;;;5.40;99.90;;;;;;5024766;28;20030;-58
2024/02/24 06:47:09;;;;;;;2.38;1.83;;;5.40;99.90;;;;;;5041802;28;20041;-58
2024/02/24 06:49:34;;;;;;;2.00;1.67;;;5.40;99.90;;;;;;5025817;28;20036;-57
2024/02/24 06:52:00;;;;;;;1.73;1.63;;;5.40;99.90;;;;;;5025133;28;20596;-59
2024/02/24 06:54:25;;;;;;;2.85;1.73;;;5.50;99.90;;;;;;5043881;28;20018;-54
2024/02/24 06:56:51;;;;;;;1.38;1.27;;;5.50;99.90;;;;;;5043747;28;20025;-57
2024/02/24 06:59:16;;;;;;;5.18;1.80;;;5.50;99.90;;;;;;5025944;28;20044;-55
2024/02/24 07:01:42;;;;;;;1.58;1.35;;;5.50;99.90;;;;;;5024365;28;20029;-58
2024/02/24 07:04:08;;;;;;;3.95;1.60;;;5.50;99.90;;;;;;5023238;28;20029;-57
2024/02/24 07:06:33;;;;;;;2.72;1.73;;;5.50;99.90;;;;;;5023720;28;20047;-55
2024/02/24 07:08:59;;;;;;;4.30;1.40;;;5.60;99.90;;;;;;5041660;28;20028;-55
2024/02/24 07:11:24;;;;;;;1.80;1.70;;;5.60;99.90;;;;;;5022740;28;20018;-58
2024/02/24 07:13:50;;;;;;;4.10;1.63;;;5.70;99.90;;;;;;5023058;28;20180;-58
2024/02/24 07:16:15;;;;;;;2.30;1.73;;;5.60;99.90;;;;;;5021750;28;20022;-53
2024/02/24 07:18:41;;;;;;;2.50;1.95;;;5.70;99.90;;;;;;5021782;28;20398;-59
2024/02/24 07:21:07;;;;;;;2.97;2.00;;;5.70;99.90;;;;;;5038544;28;20063;-55
2024/02/24 07:23:33;;;;;;;2.80;1.75;;;5.70;99.90;;;;;;5021837;28;20044;-57
2024/02/24 07:26:02;;;;;;;2.13;1.70;;;5.70;99.90;;;;;;5019710;28;20022;-58
2024/02/24 07:28:28;;;;;;;2.63;2.03;;;5.70;99.90;;;;;;5038966;28;20095;-59
2024/02/24 07:30:54;;;;;;;3.47;2.13;;;5.70;99.90;;;;;;5020670;28;20026;-59
2024/02/24 07:33:21;;;;;;;1.98;1.88;;;5.70;99.90;;;;;;5039572;28;20025;-60
2024/02/24 07:35:46;;;;;;;2.17;1.98;;;5.70;99.90;;;;;;5018793;28;20049;-58
2024/02/24 07:38:12;;;;;;;2.28;1.85;;;5.70;99.90;;;;;;5037776;28;20100;-57
2024/02/24 07:40:37;;;;;;;2.45;1.55;;;5.70;99.90;;;;;;5037132;28;20475;-58
2024/02/24 07:43:03;;;;;;;1.65;1.30;;;5.70;99.90;;;;;;5017907;28;20021;-56
2024/02/24 07:45:29;;;;;;;1.20;1.10;;;5.70;99.90;;;;;;5036137;28;20041;-57
2024/02/24 07:47:54;;;;;;;1.38;1.27;;;5.60;99.90;;;;;;5034987;28;20052;-57
2024/02/24 07:50:20;;;;;;;1.33;1.23;;;5.70;99.90;;;;;;5017342;28;20040;-60
2024/02/24 07:52:45;;;;;;;1.38;1.33;;;5.70;99.90;;;;;;5035078;28;20395;-55
2024/02/24 07:55:11;;;;;;;0.93;0.80;;;5.80;99.90;;;;;;5036506;28;20025;-59
2024/02/24 07:57:37;;;;;;;0.60;0.60;;;5.90;99.90;;;;;;5037766;28;20088;-58
2024/02/24 08:00:04;;;;;;;0.60;0.60;;;6.00;99.90;;;;;;5019812;28;20399;-59
2024/02/24 08:02:30;;;;;;;0.60;0.60;;;6.10;99.90;;;;;;5020078;28;20079;-56
2024/02/24 08:04:56;;;;;;;1.65;0.77;;;6.30;99.90;;;;;;5037317;28;20542;-55
2024/02/24 08:07:21;;;;;;;0.70;0.70;;;6.40;99.90;;;;;;5018418;28;20032;-57
2024/02/24 08:09:47;;;;;;;0.50;0.50;;;6.50;99.90;;;;;;5036722;28;20013;-58
2024/02/24 08:12:12;;;;;;;0.57;0.55;;;6.50;99.90;;;;;;5036843;28;20105;-57
2024/02/24 08:14:38;;;;;;;2.15;0.40;;;6.50;99.90;;;;;;5036859;28;20030;-56
2024/02/24 08:17:03;;;;;;;0.50;0.50;;;6.50;99.90;;;;;;5018367;28;20072;-60
2024/02/24 08:19:33;;;;;;;0.55;0.55;;;6.40;99.90;;;;;;5020792;28;20022;-60
2024/02/24 08:21:59;;;;;;;0.50;0.50;;;6.30;99.90;;;;;;5020408;28;20045;-59
2024/02/24 08:24:25;;;;;;;1.33;0.70;;;6.30;99.90;;;;;;5021678;28;20029;-57
2024/02/24 08:26:50;;;;;;;0.70;0.70;;;6.20;99.90;;;;;;5021862;28;20025;-57
2024/02/24 08:29:16;;;;;;;7.32;1.02;;;6.20;99.90;;;;;;5022810;28;20048;-51
2024/02/24 08:31:42;;;;;;;1.10;1.10;;;6.10;99.90;;;;;;5040133;28;20418;-59
2024/02/24 08:34:08;;;;;;;1.30;1.00;;;6.20;99.90;;;;;;5022790;28;20124;-60
2024/02/24 08:36:34;;;;;;;3.13;1.77;;;6.10;99.90;;;;;;5040146;28;20038;-59
2024/02/24 08:39:00;;;;;;;4.45;1.20;;;6.10;99.90;;;;;;5022515;28;20021;-59
2024/02/24 08:41:27;;;;;;;1.25;1.15;;;6.10;99.90;;;;;;5022041;28;20029;-59
2024/02/24 08:43:52;;;;;;;1.00;0.90;;;6.00;99.90;;;;;;5039317;28;20060;-58
2024/02/24 08:46:21;;;;;;;2.65;1.05;;;6.10;99.90;;;;;;5021627;28;20490;-63
2024/02/24 08:48:47;;;;;;;1.20;1.08;;;6.10;99.90;;;;;;5040316;28;20030;-59
2024/02/24 08:51:12;;;;;;;1.27;1.00;;;6.10;99.90;;;;;;5038938;28;20080;-58
2024/02/24 08:53:38;;;;;;;0.95;0.73;;;6.10;99.90;;;;;;5037621;28;20128;-61
2024/02/24 08:56:05;;;;;;;0.80;0.80;;;6.10;99.90;;;;;;5022755;28;20369;-61
2024/02/24 08:58:30;;;;;;;0.50;0.50;;;6.00;99.90;;;;;;5022862;28;20022;-61
2024/02/24 09:00:57;;;;;;;0.40;0.40;;;6.00;99.90;;;;;;5023128;28;20062;-62
2024/02/24 09:03:23;;;;;;;1.05;0.50;;;6.00;99.90;;;;;;5005522;28;20022;-61
2024/02/24 09:05:48;;;;;;;0.55;0.52;;;6.00;99.90;;;;;;5024624;28;20048;-61
2024/02/24 09:08:14;;;;;;;3.08;1.48;;;6.10;99.90;;;;;;5020361;28;20033;-58
2024/02/24 09:10:40;;;;;;;0.50;0.50;;;6.10;99.90;;;;;;5017345;28;20030;-60
2024/02/24 09:13:06;;;;;;;0.90;0.70;;;6.10;99.90;;;;;;5013655;28;20025;-59
2024/02/24 09:15:31;;;;;;;0.85;0.52;;;6.20;99.90;;;;;;5021065;28;20025;-61
2024/02/24 09:17:58;;;;;;;0.50;0.50;;;6.20;99.90;;;;;;5012683;28;20053;-56
2024/02/24 09:20:24;;;;;;;0.32;0.32;;;6.30;99.90;;;;;;5016245;28;20109;-60
2024/02/24 09:22:49;;;;;;;0.75;0.43;;;6.30;99.90;;;;;;5015096;28;20574;-62
2024/02/24 09:25:16;;;;;;;0.38;0.38;;;6.30;99.90;;;;;;5014687;28;20045;-59
2024/02/24 09:27:42;;;;;;;0.50;0.50;;;6.40;99.90;;;;;;5025941;28;20026;-57
2024/02/24 09:30:12;;;;;;;1.83;0.55;;;6.40;99.90;;;;;;5026179;28;20451;-61
2024/02/24 09:32:39;;;;;;;0.57;0.57;;;6.40;99.90;;;;;;5015151;28;20449;-61
2024/02/24 09:35:05;;;;;;;0.73;0.73;;;6.40;99.90;;;;;;5029118;28;20022;-59
2024/02/24 09:37:32;;;;;;;0.70;0.70;;;6.50;99.90;;;;;;5035869;28;20033;-56
2024/02/24 09:39:58;;;;;;;0.68;0.68;;;6.50;99.90;;;;;;5034936;28;20117;-59
2024/02/24 09:42:27;;;;;;;0.43;0.43;;;7.00;99.90;;;;;;5035223;28;20049;-57
2024/02/24 09:44:57;;;;;;;0.65;0.65;;;7.40;99.90;;;;;;5020144;28;20399;-58
2024/02/24 09:47:23;;;;;;;0.50;0.50;;;8.60;99.90;;;;;;5035429;28;20029;-59
2024/02/24 09:49:48;;;;;;;0.50;0.50;;;9.60;99.90;;;;;;5025265;28;20132;-59
2024/02/24 09:52:15;;;;;;;1.40;0.50;;;10.70;99.90;;;;;;5015243;28;20092;-58
2024/02/24 09:54:40;;;;;;;0.40;0.40;;;11.70;99.90;;;;;;5014908;28;20018;-60
2024/02/24 09:57:07;;;;;;;0.30;0.30;;;;;;;;;;5014794;28;20148;-60
2024/02/24 09:59:34;;;;;;;1.05;0.30;;;11.40;99.90;;;;;;5014787;28;20034;-60
2024/02/24 10:01:59;;;;;;;0.40;0.40;;;10.50;99.90;;;;;;5014613;28;20037;-60
2024/02/24 10:04:26;;;;;;;0.30;0.30;;;10.10;99.90;;;;;;5031447;28;20029;-61
2024/02/24 10:06:54;;;;;;;0.68;0.60;;;10.50;99.90;;;;;;5011110;28;20022;-58
2024/02/24 10:09:19;;;;;;;0.65;0.60;;;10.50;99.90;;;;;;5014644;28;20030;-59
2024/02/24 10:11:45;;;;;;;0.30;0.30;;;10.20;99.90;;;;;;5014723;28;20491;-63
2024/02/24 10:14:11;;;;;;;0.32;0.32;;;9.90;99.90;;;;;;5014494;28;20025;-57
2024/02/24 10:16:37;;;;;;;1.10;0.50;;;9.10;99.90;;;;;;5020398;28;20026;-57
2024/02/24 10:19:06;;;;;;;0.40;0.40;;;9.40;99.90;;;;;;5025686;28;20025;-60
2024/02/24 10:21:33;;;;;;;0.45;0.40;;;9.20;99.90;;;;;;5020670;28;20026;-60
2024/02/24 10:23:59;;;;;;;0.40;0.40;;;8.90;99.90;;;;;;5020718;28;20101;-58
2024/02/24 10:26:26;;;;;;;0.52;0.45;;;8.70;99.90;;;;;;5017823;28;20033;-57
2024/02/24 10:28:53;;;;;;;1.35;0.57;;;8.50;99.90;;;;;;5034850;28;20032;-58
2024/02/24 10:31:19;;;;;;;0.60;0.60;;;8.30;99.90;;;;;;5032687;28;20026;-59
2024/02/24 10:33:47;;;;;;;0.40;0.40;;;8.30;99.90;;;;;;5016656;28;20078;-60
2024/02/24 10:36:14;;;;;;;0.98;0.55;;;8.60;99.90;;;;;;5006758;28;20022;-60
2024/02/24 10:38:40;;;;;;;0.55;0.50;;;9.10;99.90;;;;;;5022303;28;20475;-60
2024/02/24 10:41:08;;;;;;;0.50;0.50;;;9.40;99.90;;;;;;5028988;28;20053;-64
2024/02/24 10:43:34;;;;;;;0.70;0.70;;;9.70;99.90;;;;;;5031396;28;20021;-61
2024/02/24 10:46:00;;;;;;;3.13;0.60;;;9.70;99.90;;;;;;5013862;28;20053;-59
2024/02/24 10:48:25;;;;;;;1.45;0.57;;;9.40;99.90;;;;;;5013889;28;20664;-61
2024/02/24 10:50:51;;;;;;;1.23;0.52;;;9.00;99.90;;;;;;5017467;28;20487;-61
2024/02/24 10:53:20;;;;;;;1.27;0.90;;;8.90;99.90;;;;;;5023150;28;20058;-63
2024/02/24 10:55:47;;;;;;;2.45;0.50;;;9.20;99.90;;;;;;5006750;28;20121;-63
2024/02/24 10:58:19;;;;;;;30.80;16.52;;;9.50;99.90;;;;;;5013398;28;20609;-63
2024/02/24 11:00:46;;;;;;;5.28;2.80;;;9.80;99.90;;;;;;5026741;28;20495;-63
2024/02/24 11:03:13;;;;;;;2.03;0.93;;;9.70;99.90;;;;;;5015480;28;20026;-64
2024/02/24 11:05:45;;;;;;;0.93;0.50;;;9.50;99.90;;;;;;5033642;28;20021;-64
2024/02/24 11:08:45;;;;;;;0.60;0.50;;;9.40;99.90;;;;;;5031418;28;20056;-64
2024/02/24 11:11:12;;;;;;;1.27;0.40;;;9.50;99.90;;;;;;5015412;28;20422;-58
2024/02/24 11:13:47;;;;;;;0.40;0.40;;;9.50;99.90;;;;;;5032196;28;20116;-64
2024/02/24 11:16:18;;;;;;;0.77;0.52;;;9.40;99.90;;;;;;5027809;28;20462;-64
2024/02/24 11:18:51;;;;;;;0.52;0.52;;;9.30;99.90;;;;;;5022207;28;20040;-63
2024/02/24 11:21:17;;;;;;;0.40;0.40;;;9.20;99.90;;;;;;5032335;28;20013;-61
2024/02/24 11:23:44;;;;;;;1.05;0.60;;;9.10;99.90;;;;;;5032831;28;20030;-63
2024/02/24 11:26:13;;;;;;;0.93;0.40;;;9.10;99.90;;;;;;5031725;28;20076;-61
2024/02/24 11:28:40;;;;;;;2.30;0.40;;;9.30;99.90;;;;;;5031937;28;20021;-63
2024/02/24 11:31:06;;;;;;;0.95;0.40;;;9.10;99.90;;;;;;5032157;28;20064;-63
2024/02/24 11:33:37;;;;;;;5.80;1.88;;;8.60;99.90;;;;;;5029897;28;20032;-63
2024/02/24 11:36:04;;;;;;;0.73;0.73;;;9.00;99.90;;;;;;5022613;28;20510;-62
2024/02/24 11:38:31;;;;;;;0.38;0.38;;;9.00;99.90;;;;;;5011773;28;20029;-60
2024/02/24 11:40:57;;;;;;;0.50;0.50;;;8.90;99.90;;;;;;5035357;28;20052;-63
2024/02/24 11:43:22;;;;;;;2.05;0.60;;;8.90;99.90;;;;;;5033974;28;20036;-63
2024/02/24 11:45:50;;;;;;;4.18;0.60;;;8.80;99.90;;;;;;5052008;28;20375;-64
2024/02/24 11:48:17;;;;;;;2.45;0.80;;;8.90;99.90;;;;;;5051935;28;20044;-58
2024/02/24 11:50:43;;;;;;;0.73;0.73;;;8.90;99.90;;;;;;5033827;28;20382;-57
2024/02/24 11:53:10;;;;;;;3.08;0.68;;;8.90;99.90;;;;;;5052323;28;20021;-54
2024/02/24 11:55:36;;;;;;;1.60;0.47;;;8.80;99.90;;;;;;5046902;28;20026;-55
2024/02/24 11:58:07;;;;;;;0.65;0.40;;;8.90;99.90;;;;;;5040581;28;20422;-54
2024/02/24 12:00:40;;;;;;;0.57;0.55;;;9.10;99.90;;;;;;5032359;28;20509;-52
2024/02/24 12:03:10;;;;;;;2.15;0.55;;;9.10;99.90;;;;;;5031910;28;20029;-55
2024/02/24 12:05:36;;;;;;;1.52;0.70;;;9.20;99.90;;;;;;5031792;28;20030;-54
2024/02/24 12:08:06;;;;;;;3.28;0.65;;;9.20;99.90;;;;;;5031618;28;20088;-53
2024/02/24 12:10:37;;;;;;;2.97;0.80;;;9.20;99.90;;;;;;5032089;28;20017;-50
2024/02/24 12:13:10;;;;;;;0.60;0.60;;;9.20;99.90;;;;;;5068748;28;20562;-51
2024/02/24 12:15:38;;;;;;;1.73;0.55;;;9.30;99.90;;;;;;5066339;28;20033;-60
2024/02/24 12:18:07;;;;;;;1.00;0.70;;;9.20;99.90;;;;;;5068423;28;20099;-58
2024/02/24 12:20:48;;;;;;;0.68;0.68;;;9.30;99.90;;;;;;5067993;28;20049;-52
2024/02/24 12:23:18;;;;;;;0.75;0.75;;;9.30;99.90;;;;;;5066128;28;20025;-56
2024/02/24 12:25:45;;;;;;;0.40;0.40;;;9.30;99.90;;;;;;5066724;28;20104;-56
2024/02/24 12:28:11;;;;;;;0.40;0.40;;;9.20;99.90;;;;;;5068191;28;20071;-54
2024/02/24 12:30:38;;;;;;;0.50;0.50;;;9.30;99.90;;;;;;5068151;28;20028;-61
2024/02/24 12:33:05;;;;;;;0.45;0.45;;;9.30;99.90;;;;;;5065983;28;20369;-59
2024/02/24 12:35:31;;;;;;;0.90;0.60;;;9.40;99.90;;;;;;5067110;28;20024;-59
2024/02/24 12:37:57;;;;;;;1.83;0.60;;;9.40;99.90;;;;;;5066930;28;20220;-56
2024/02/24 12:40:30;;;;;;;0.80;0.80;;;9.50;99.90;;;;;;5066346;28;20605;-60
2024/02/24 12:42:57;;;;;;;1.60;0.55;;;9.60;99.90;;;;;;5067671;28;20396;-54
2024/02/24 12:45:23;;;;;;;1.55;0.80;;;9.60;99.90;;;;;;5067545;28;20021;-56
2024/02/24 12:47:51;;;;;;;1.63;1.38;;;9.60;99.90;;;;;;5066471;28;20032;-54
2024/02/24 12:50:21;;;;;;;23.88;13.50;;;9.50;99.90;;;;;;5068577;28;20020;-54